sensor_id;sensor_type;location;lat;lon;timestamp;P1;durP1;ratioP1;P2;durP2;ratioP2
13832;SDS011;6987;19.472;-99.276;2022-10-23T00:01:14;6.90;;;4.80;;
13832;SDS011;6987;19.472;-99.276;2022-10-23T00:03:44;5.20;;;4.70;;
13832;SDS011;6987;19.472;-99.276;2022-10-23T00:06:13;5.57;;;4.68;;
13832;SDS011;6987;19.472;-99.276;2022-10-23T00:08:42;6.55;;;4.47;;
13832;SDS011;6987;19.472;-99.276;2022-10-23T00:11:11;4.00;;;3.70;;
13832;SDS011;6987;19.472;-99.276;2022-10-23T00:13:40;4.32;;;4.03;;
13832;SDS011;6987;19.472;-99.276;2022-10-23T00:16:09;4.65;;;3.65;;
13832;SDS011;6987;19.472;-99.276;2022-10-23T00:18:40;4.28;;;3.88;;
13832;SDS011;6987;19.472;-99.276;2022-10-23T00:21:10;4.60;;;4.07;;
13832;SDS011;6987;19.472;-99.276;2022-10-23T00:23:40;8.13;;;5.20;;
13832;SDS011;6987;19.472;-99.276;2022-10-23T00:26:09;6.57;;;5.97;;
13832;SDS011;6987;19.472;-99.276;2022-10-23T00:28:40;6.43;;;5.82;;
13832;SDS011;6987;19.472;-99.276;2022-10-23T00:31:09;8.45;;;6.25;;
13832;SDS011;6987;19.472;-99.276;2022-10-23T00:33:40;8.05;;;6.40;;
13832;SDS011;6987;19.472;-99.276;2022-10-23T00:36:10;9.18;;;6.68;;
13832;SDS011;6987;19.472;-99.276;2022-10-23T00:43:58;9.85;;;7.32;;
13832;SDS011;6987;19.472;-99.276;2022-10-23T00:46:27;10.00;;;7.70;;
13832;SDS011;6987;19.472;-99.276;2022-10-23T00:48:58;12.23;;;7.13;;
13832;SDS011;6987;19.472;-99.276;2022-10-23T00:51:27;11.23;;;6.80;;
13832;SDS011;6987;19.472;-99.276;2022-10-23T00:53:57;7.53;;;6.10;;
13832;SDS011;6987;19.472;-99.276;2022-10-23T00:56:27;8.20;;;7.40;;
13832;SDS011;6987;19.472;-99.276;2022-10-23T00:58:56;18.33;;;8.27;;
13832;SDS011;6987;19.472;-99.276;2022-10-23T01:01:25;10.30;;;9.30;;
13832;SDS011;6987;19.472;-99.276;2022-10-23T01:03:54;9.98;;;9.05;;
13832;SDS011;6987;19.472;-99.276;2022-10-23T01:06:28;10.38;;;9.30;;
13832;SDS011;6987;19.472;-99.276;2022-10-23T01:09:02;11.57;;;9.35;;
13832;SDS011;6987;19.472;-99.276;2022-10-23T01:11:35;10.18;;;9.30;;
13832;SDS011;6987;19.472;-99.276;2022-10-23T01:14:09;10.23;;;9.30;;
13832;SDS011;6987;19.472;-99.276;2022-10-23T01:16:43;11.35;;;9.68;;
13832;SDS011;6987;19.472;-99.276;2022-10-23T01:19:15;12.45;;;9.38;;
13832;SDS011;6987;19.472;-99.276;2022-10-23T01:21:52;9.85;;;9.05;;
13832;SDS011;6987;19.472;-99.276;2022-10-23T01:30:00;9.98;;;9.10;;
13832;SDS011;6987;19.472;-99.276;2022-10-23T01:32:33;10.27;;;9.38;;
13832;SDS011;6987;19.472;-99.276;2022-10-23T01:35:03;9.50;;;8.80;;
13832;SDS011;6987;19.472;-99.276;2022-10-23T01:37:34;10.63;;;9.52;;
13832;SDS011;6987;19.472;-99.276;2022-10-23T01:40:05;9.90;;;9.07;;
13832;SDS011;6987;19.472;-99.276;2022-10-23T01:42:37;10.32;;;9.48;;
13832;SDS011;6987;19.472;-99.276;2022-10-23T01:45:10;10.88;;;9.95;;
13832;SDS011;6987;19.472;-99.276;2022-10-23T01:47:41;10.00;;;9.20;;
13832;SDS011;6987;19.472;-99.276;2022-10-23T01:50:11;10.52;;;9.63;;
13832;SDS011;6987;19.472;-99.276;2022-10-23T01:52:42;9.82;;;9.02;;
13832;SDS011;6987;19.472;-99.276;2022-10-23T01:55:11;10.15;;;9.32;;
13832;SDS011;6987;19.472;-99.276;2022-10-23T01:57:41;9.77;;;8.88;;
13832;SDS011;6987;19.472;-99.276;2022-10-23T02:00:14;10.38;;;9.48;;
13832;SDS011;6987;19.472;-99.276;2022-10-23T02:02:43;10.13;;;9.10;;
13832;SDS011;6987;19.472;-99.276;2022-10-23T02:05:13;11.35;;;10.15;;
13832;SDS011;6987;19.472;-99.276;2022-10-23T02:07:43;9.73;;;8.80;;
13832;SDS011;6987;19.472;-99.276;2022-10-23T02:10:12;10.57;;;9.65;;
13832;SDS011;6987;19.472;-99.276;2022-10-23T02:12:45;9.82;;;8.95;;
13832;SDS011;6987;19.472;-99.276;2022-10-23T02:15:18;9.23;;;8.27;;
13832;SDS011;6987;19.472;-99.276;2022-10-23T02:17:50;12.40;;;9.23;;
13832;SDS011;6987;19.472;-99.276;2022-10-23T02:20:24;10.68;;;9.75;;
13832;SDS011;6987;19.472;-99.276;2022-10-23T02:22:58;13.98;;;9.55;;
13832;SDS011;6987;19.472;-99.276;2022-10-23T02:25:30;9.88;;;9.05;;
13832;SDS011;6987;19.472;-99.276;2022-10-23T02:28:00;10.23;;;9.25;;
13832;SDS011;6987;19.472;-99.276;2022-10-23T02:30:32;11.60;;;10.27;;
13832;SDS011;6987;19.472;-99.276;2022-10-23T02:33:03;12.43;;;9.63;;
13832;SDS011;6987;19.472;-99.276;2022-10-23T02:35:32;9.88;;;8.98;;
13832;SDS011;6987;19.472;-99.276;2022-10-23T02:38:01;10.63;;;9.02;;
13832;SDS011;6987;19.472;-99.276;2022-10-23T02:40:31;10.07;;;9.23;;
13832;SDS011;6987;19.472;-99.276;2022-10-23T02:43:02;10.45;;;9.55;;
13832;SDS011;6987;19.472;-99.276;2022-10-23T02:45:35;11.27;;;10.15;;
13832;SDS011;6987;19.472;-99.276;2022-10-23T02:48:09;10.93;;;9.80;;
13832;SDS011;6987;19.472;-99.276;2022-10-23T02:50:41;13.98;;;9.98;;
13832;SDS011;6987;19.472;-99.276;2022-10-23T02:53:13;11.23;;;10.15;;
13832;SDS011;6987;19.472;-99.276;2022-10-23T02:55:45;10.57;;;9.48;;
13832;SDS011;6987;19.472;-99.276;2022-10-23T02:58:19;10.60;;;9.63;;
13832;SDS011;6987;19.472;-99.276;2022-10-23T03:00:50;11.10;;;9.60;;
13832;SDS011;6987;19.472;-99.276;2022-10-23T03:03:21;11.27;;;9.73;;
13832;SDS011;6987;19.472;-99.276;2022-10-23T03:05:51;11.85;;;10.07;;
13832;SDS011;6987;19.472;-99.276;2022-10-23T03:08:20;10.05;;;9.13;;
13832;SDS011;6987;19.472;-99.276;2022-10-23T03:10:49;12.10;;;10.00;;
13832;SDS011;6987;19.472;-99.276;2022-10-23T03:13:18;10.15;;;9.35;;
13832;SDS011;6987;19.472;-99.276;2022-10-23T03:15:49;11.48;;;10.05;;
13832;SDS011;6987;19.472;-99.276;2022-10-23T03:18:18;10.50;;;9.50;;
13832;SDS011;6987;19.472;-99.276;2022-10-23T03:20:47;10.85;;;9.73;;
13832;SDS011;6987;19.472;-99.276;2022-10-23T03:23:17;10.95;;;9.85;;
13832;SDS011;6987;19.472;-99.276;2022-10-23T03:25:46;10.27;;;9.25;;
13832;SDS011;6987;19.472;-99.276;2022-10-23T03:28:15;10.50;;;9.60;;
13832;SDS011;6987;19.472;-99.276;2022-10-23T03:30:44;9.90;;;8.90;;
13832;SDS011;6987;19.472;-99.276;2022-10-23T03:33:15;10.20;;;9.25;;
13832;SDS011;6987;19.472;-99.276;2022-10-23T03:35:44;10.73;;;9.70;;
13832;SDS011;6987;19.472;-99.276;2022-10-23T03:38:12;10.52;;;9.50;;
13832;SDS011;6987;19.472;-99.276;2022-10-23T03:40:41;10.27;;;9.40;;
13832;SDS011;6987;19.472;-99.276;2022-10-23T03:43:10;10.27;;;8.95;;
13832;SDS011;6987;19.472;-99.276;2022-10-23T03:45:39;11.43;;;10.23;;
13832;SDS011;6987;19.472;-99.276;2022-10-23T03:48:08;10.13;;;9.25;;
13832;SDS011;6987;19.472;-99.276;2022-10-23T03:50:38;12.65;;;11.18;;
13832;SDS011;6987;19.472;-99.276;2022-10-23T03:53:07;12.15;;;10.85;;
13832;SDS011;6987;19.472;-99.276;2022-10-23T03:55:36;10.60;;;9.60;;
13832;SDS011;6987;19.472;-99.276;2022-10-23T03:58:06;10.90;;;9.82;;
13832;SDS011;6987;19.472;-99.276;2022-10-23T04:00:35;14.02;;;12.43;;
13832;SDS011;6987;19.472;-99.276;2022-10-23T04:03:04;15.10;;;13.63;;
13832;SDS011;6987;19.472;-99.276;2022-10-23T04:05:33;16.40;;;14.63;;
13832;SDS011;6987;19.472;-99.276;2022-10-23T04:08:04;16.05;;;14.45;;
13832;SDS011;6987;19.472;-99.276;2022-10-23T04:10:33;14.98;;;13.57;;
13832;SDS011;6987;19.472;-99.276;2022-10-23T04:13:02;14.82;;;13.30;;
13832;SDS011;6987;19.472;-99.276;2022-10-23T04:15:31;13.45;;;12.13;;
13832;SDS011;6987;19.472;-99.276;2022-10-23T04:18:00;14.27;;;12.80;;
13832;SDS011;6987;19.472;-99.276;2022-10-23T04:20:28;16.08;;;13.20;;
13832;SDS011;6987;19.472;-99.276;2022-10-23T04:22:57;14.73;;;13.02;;
13832;SDS011;6987;19.472;-99.276;2022-10-23T04:25:28;14.25;;;12.65;;
13832;SDS011;6987;19.472;-99.276;2022-10-23T04:27:57;13.10;;;11.82;;
13832;SDS011;6987;19.472;-99.276;2022-10-23T04:30:26;13.52;;;12.20;;
13832;SDS011;6987;19.472;-99.276;2022-10-23T04:32:54;12.82;;;11.50;;
13832;SDS011;6987;19.472;-99.276;2022-10-23T04:35:23;12.30;;;11.18;;
13832;SDS011;6987;19.472;-99.276;2022-10-23T04:37:52;12.27;;;11.15;;
13832;SDS011;6987;19.472;-99.276;2022-10-23T04:40:21;12.23;;;10.95;;
13832;SDS011;6987;19.472;-99.276;2022-10-23T04:42:52;14.10;;;10.73;;
13832;SDS011;6987;19.472;-99.276;2022-10-23T04:45:23;12.35;;;11.15;;
13832;SDS011;6987;19.472;-99.276;2022-10-23T04:47:52;13.13;;;10.88;;
13832;SDS011;6987;19.472;-99.276;2022-10-23T04:50:21;12.73;;;10.73;;
13832;SDS011;6987;19.472;-99.276;2022-10-23T04:52:58;11.65;;;10.20;;
13832;SDS011;6987;19.472;-99.276;2022-10-23T04:55:27;12.18;;;10.10;;
13832;SDS011;6987;19.472;-99.276;2022-10-23T04:57:58;11.27;;;9.95;;
13832;SDS011;6987;19.472;-99.276;2022-10-23T05:00:30;11.65;;;10.00;;
13832;SDS011;6987;19.472;-99.276;2022-10-23T05:03:01;11.35;;;10.13;;
13832;SDS011;6987;19.472;-99.276;2022-10-23T05:05:30;11.38;;;9.90;;
13832;SDS011;6987;19.472;-99.276;2022-10-23T05:08:02;11.32;;;10.35;;
13832;SDS011;6987;19.472;-99.276;2022-10-23T05:10:31;10.95;;;9.95;;
13832;SDS011;6987;19.472;-99.276;2022-10-23T05:13:07;11.02;;;9.73;;
13832;SDS011;6987;19.472;-99.276;2022-10-23T05:15:39;9.55;;;8.65;;
13832;SDS011;6987;19.472;-99.276;2022-10-23T05:18:14;10.38;;;9.35;;
13832;SDS011;6987;19.472;-99.276;2022-10-23T05:20:47;9.13;;;8.32;;
13832;SDS011;6987;19.472;-99.276;2022-10-23T05:23:17;9.63;;;8.73;;
13832;SDS011;6987;19.472;-99.276;2022-10-23T05:25:47;11.15;;;9.82;;
13832;SDS011;6987;19.472;-99.276;2022-10-23T05:28:17;10.75;;;8.90;;
13832;SDS011;6987;19.472;-99.276;2022-10-23T05:30:49;9.40;;;8.60;;
13832;SDS011;6987;19.472;-99.276;2022-10-23T05:33:21;9.32;;;8.52;;
13832;SDS011;6987;19.472;-99.276;2022-10-23T05:35:51;9.73;;;8.93;;
13832;SDS011;6987;19.472;-99.276;2022-10-23T05:38:20;8.48;;;7.80;;
13832;SDS011;6987;19.472;-99.276;2022-10-23T05:40:50;8.45;;;7.65;;
13832;SDS011;6987;19.472;-99.276;2022-10-23T05:43:20;8.95;;;8.20;;
13832;SDS011;6987;19.472;-99.276;2022-10-23T05:45:51;9.25;;;8.55;;
13832;SDS011;6987;19.472;-99.276;2022-10-23T05:48:22;8.48;;;7.75;;
13832;SDS011;6987;19.472;-99.276;2022-10-23T05:50:51;8.52;;;7.72;;
13832;SDS011;6987;19.472;-99.276;2022-10-23T05:53:20;8.38;;;7.68;;
13832;SDS011;6987;19.472;-99.276;2022-10-23T05:55:52;9.00;;;8.13;;
13832;SDS011;6987;19.472;-99.276;2022-10-23T05:58:22;9.63;;;8.73;;
13832;SDS011;6987;19.472;-99.276;2022-10-23T06:00:51;8.15;;;7.55;;
13832;SDS011;6987;19.472;-99.276;2022-10-23T06:03:20;8.80;;;7.95;;
13832;SDS011;6987;19.472;-99.276;2022-10-23T06:05:49;8.63;;;7.50;;
13832;SDS011;6987;19.472;-99.276;2022-10-23T06:08:18;9.23;;;8.43;;
13832;SDS011;6987;19.472;-99.276;2022-10-23T06:10:50;8.38;;;7.63;;
13832;SDS011;6987;19.472;-99.276;2022-10-23T06:13:19;8.52;;;7.85;;
13832;SDS011;6987;19.472;-99.276;2022-10-23T06:15:49;8.77;;;8.00;;
13832;SDS011;6987;19.472;-99.276;2022-10-23T06:18:18;8.73;;;7.93;;
13832;SDS011;6987;19.472;-99.276;2022-10-23T06:20:50;7.90;;;7.25;;
13832;SDS011;6987;19.472;-99.276;2022-10-23T06:23:22;8.13;;;7.38;;
13832;SDS011;6987;19.472;-99.276;2022-10-23T06:25:51;8.00;;;7.10;;
13832;SDS011;6987;19.472;-99.276;2022-10-23T06:28:21;8.25;;;7.45;;
13832;SDS011;6987;19.472;-99.276;2022-10-23T06:30:51;7.72;;;7.15;;
13832;SDS011;6987;19.472;-99.276;2022-10-23T06:33:20;7.45;;;6.95;;
13832;SDS011;6987;19.472;-99.276;2022-10-23T06:35:49;8.82;;;8.00;;
13832;SDS011;6987;19.472;-99.276;2022-10-23T06:38:18;8.20;;;7.40;;
13832;SDS011;6987;19.472;-99.276;2022-10-23T06:40:50;7.38;;;6.68;;
13832;SDS011;6987;19.472;-99.276;2022-10-23T06:43:19;7.55;;;6.82;;
13832;SDS011;6987;19.472;-99.276;2022-10-23T06:45:54;8.35;;;7.65;;
13832;SDS011;6987;19.472;-99.276;2022-10-23T06:48:23;8.88;;;6.78;;
13832;SDS011;6987;19.472;-99.276;2022-10-23T06:50:52;8.32;;;7.63;;
13832;SDS011;6987;19.472;-99.276;2022-10-23T06:53:21;7.97;;;6.93;;
13832;SDS011;6987;19.472;-99.276;2022-10-23T06:55:50;7.03;;;6.03;;
13832;SDS011;6987;19.472;-99.276;2022-10-23T06:58:19;7.63;;;7.03;;
13832;SDS011;6987;19.472;-99.276;2022-10-23T07:00:48;7.53;;;6.82;;
13832;SDS011;6987;19.472;-99.276;2022-10-23T07:03:19;6.90;;;6.35;;
13832;SDS011;6987;19.472;-99.276;2022-10-23T07:05:48;7.25;;;6.65;;
13832;SDS011;6987;19.472;-99.276;2022-10-23T07:08:17;7.43;;;6.70;;
13832;SDS011;6987;19.472;-99.276;2022-10-23T07:10:46;9.82;;;6.93;;
13832;SDS011;6987;19.472;-99.276;2022-10-23T07:13:15;6.88;;;6.38;;
13832;SDS011;6987;19.472;-99.276;2022-10-23T07:15:47;7.90;;;7.13;;
13832;SDS011;6987;19.472;-99.276;2022-10-23T07:18:16;7.93;;;7.18;;
13832;SDS011;6987;19.472;-99.276;2022-10-23T07:20:46;7.40;;;6.80;;
13832;SDS011;6987;19.472;-99.276;2022-10-23T07:23:16;7.30;;;6.63;;
13832;SDS011;6987;19.472;-99.276;2022-10-23T07:25:47;6.25;;;5.75;;
13832;SDS011;6987;19.472;-99.276;2022-10-23T07:28:16;6.22;;;5.82;;
13832;SDS011;6987;19.472;-99.276;2022-10-23T07:30:54;7.32;;;6.60;;
13832;SDS011;6987;19.472;-99.276;2022-10-23T07:33:23;8.00;;;7.20;;
13832;SDS011;6987;19.472;-99.276;2022-10-23T07:35:54;6.43;;;5.93;;
13832;SDS011;6987;19.472;-99.276;2022-10-23T07:38:28;6.70;;;6.20;;
13832;SDS011;6987;19.472;-99.276;2022-10-23T07:40:57;6.93;;;6.20;;
13832;SDS011;6987;19.472;-99.276;2022-10-23T07:43:27;6.30;;;5.82;;
13832;SDS011;6987;19.472;-99.276;2022-10-23T07:45:55;6.75;;;6.18;;
13832;SDS011;6987;19.472;-99.276;2022-10-23T07:48:24;6.13;;;5.68;;
13832;SDS011;6987;19.472;-99.276;2022-10-23T07:50:56;6.07;;;5.55;;
13832;SDS011;6987;19.472;-99.276;2022-10-23T07:53:25;6.20;;;5.53;;
13832;SDS011;6987;19.472;-99.276;2022-10-23T07:55:55;6.68;;;5.72;;
13832;SDS011;6987;19.472;-99.276;2022-10-23T07:58:24;6.43;;;5.93;;
13832;SDS011;6987;19.472;-99.276;2022-10-23T08:00:54;6.03;;;5.55;;
13832;SDS011;6987;19.472;-99.276;2022-10-23T08:03:23;6.45;;;5.88;;
13832;SDS011;6987;19.472;-99.276;2022-10-23T08:05:52;5.45;;;5.05;;
13832;SDS011;6987;19.472;-99.276;2022-10-23T08:08:24;5.05;;;4.70;;
13832;SDS011;6987;19.472;-99.276;2022-10-23T08:10:53;6.00;;;5.57;;
13832;SDS011;6987;19.472;-99.276;2022-10-23T08:13:25;6.15;;;5.55;;
13832;SDS011;6987;19.472;-99.276;2022-10-23T08:15:56;5.70;;;5.30;;
13832;SDS011;6987;19.472;-99.276;2022-10-23T08:18:25;5.30;;;4.95;;
13832;SDS011;6987;19.472;-99.276;2022-10-23T08:20:58;5.22;;;4.82;;
13832;SDS011;6987;19.472;-99.276;2022-10-23T08:23:30;5.50;;;5.00;;
13832;SDS011;6987;19.472;-99.276;2022-10-23T08:25:59;4.90;;;4.50;;
13832;SDS011;6987;19.472;-99.276;2022-10-23T08:28:30;5.47;;;5.00;;
13832;SDS011;6987;19.472;-99.276;2022-10-23T08:31:04;5.55;;;4.72;;
13832;SDS011;6987;19.472;-99.276;2022-10-23T08:33:34;4.82;;;4.50;;
13832;SDS011;6987;19.472;-99.276;2022-10-23T08:36:03;5.00;;;4.53;;
13832;SDS011;6987;19.472;-99.276;2022-10-23T08:38:33;5.78;;;5.38;;
13832;SDS011;6987;19.472;-99.276;2022-10-23T08:41:02;5.25;;;4.80;;
13832;SDS011;6987;19.472;-99.276;2022-10-23T08:43:32;5.38;;;4.90;;
13832;SDS011;6987;19.472;-99.276;2022-10-23T08:46:04;4.95;;;4.55;;
13832;SDS011;6987;19.472;-99.276;2022-10-23T08:48:36;5.18;;;4.80;;
13832;SDS011;6987;19.472;-99.276;2022-10-23T08:51:06;5.80;;;4.82;;
13832;SDS011;6987;19.472;-99.276;2022-10-23T08:53:42;5.60;;;5.20;;
13832;SDS011;6987;19.472;-99.276;2022-10-23T08:56:15;5.15;;;4.75;;
13832;SDS011;6987;19.472;-99.276;2022-10-23T08:58:46;4.47;;;4.18;;
13832;SDS011;6987;19.472;-99.276;2022-10-23T09:01:25;5.47;;;4.55;;
13832;SDS011;6987;19.472;-99.276;2022-10-23T09:03:56;6.55;;;5.10;;
13832;SDS011;6987;19.472;-99.276;2022-10-23T09:06:29;5.70;;;5.18;;
13832;SDS011;6987;19.472;-99.276;2022-10-23T09:09:02;5.47;;;4.82;;
13832;SDS011;6987;19.472;-99.276;2022-10-23T09:11:35;6.95;;;5.45;;
13832;SDS011;6987;19.472;-99.276;2022-10-23T09:16:56;4.85;;;4.50;;
13832;SDS011;6987;19.472;-99.276;2022-10-23T09:19:27;4.82;;;4.43;;
13832;SDS011;6987;19.472;-99.276;2022-10-23T09:21:57;5.15;;;4.75;;
13832;SDS011;6987;19.472;-99.276;2022-10-23T09:24:27;7.47;;;5.20;;
13832;SDS011;6987;19.472;-99.276;2022-10-23T09:26:58;5.43;;;4.97;;
13832;SDS011;6987;19.472;-99.276;2022-10-23T09:29:27;4.90;;;4.45;;
13832;SDS011;6987;19.472;-99.276;2022-10-23T09:31:57;4.93;;;4.60;;
13832;SDS011;6987;19.472;-99.276;2022-10-23T09:34:27;6.78;;;4.95;;
13832;SDS011;6987;19.472;-99.276;2022-10-23T09:36:57;6.70;;;4.90;;
13832;SDS011;6987;19.472;-99.276;2022-10-23T09:39:29;5.57;;;4.95;;
13832;SDS011;6987;19.472;-99.276;2022-10-23T09:41:58;5.03;;;4.63;;
13832;SDS011;6987;19.472;-99.276;2022-10-23T09:44:28;5.38;;;5.05;;
13832;SDS011;6987;19.472;-99.276;2022-10-23T09:46:58;5.72;;;5.18;;
13832;SDS011;6987;19.472;-99.276;2022-10-23T09:49:28;5.13;;;4.70;;
13832;SDS011;6987;19.472;-99.276;2022-10-23T09:52:00;5.68;;;5.18;;
13832;SDS011;6987;19.472;-99.276;2022-10-23T09:54:32;5.32;;;4.82;;
13832;SDS011;6987;19.472;-99.276;2022-10-23T09:57:04;5.70;;;5.15;;
13832;SDS011;6987;19.472;-99.276;2022-10-23T09:59:34;6.35;;;4.72;;
13832;SDS011;6987;19.472;-99.276;2022-10-23T10:04:43;5.80;;;5.40;;
13832;SDS011;6987;19.472;-99.276;2022-10-23T10:07:17;5.45;;;5.03;;
13832;SDS011;6987;19.472;-99.276;2022-10-23T10:09:47;6.35;;;5.55;;
13832;SDS011;6987;19.472;-99.276;2022-10-23T10:12:20;5.22;;;4.75;;
13832;SDS011;6987;19.472;-99.276;2022-10-23T10:14:53;5.63;;;5.13;;
13832;SDS011;6987;19.472;-99.276;2022-10-23T10:17:25;6.07;;;5.43;;
13832;SDS011;6987;19.472;-99.276;2022-10-23T10:20:00;5.55;;;5.05;;
13832;SDS011;6987;19.472;-99.276;2022-10-23T10:22:32;5.70;;;5.07;;
13832;SDS011;6987;19.472;-99.276;2022-10-23T10:25:06;6.78;;;6.18;;
13832;SDS011;6987;19.472;-99.276;2022-10-23T10:27:41;5.95;;;5.43;;
13832;SDS011;6987;19.472;-99.276;2022-10-23T10:30:12;5.68;;;5.18;;
13832;SDS011;6987;19.472;-99.276;2022-10-23T10:32:44;5.25;;;4.82;;
13832;SDS011;6987;19.472;-99.276;2022-10-23T10:35:25;6.22;;;5.43;;
13832;SDS011;6987;19.472;-99.276;2022-10-23T10:38:09;5.55;;;5.15;;
13832;SDS011;6987;19.472;-99.276;2022-10-23T10:40:44;6.25;;;5.78;;
13832;SDS011;6987;19.472;-99.276;2022-10-23T10:43:19;6.20;;;5.65;;
13832;SDS011;6987;19.472;-99.276;2022-10-23T10:45:52;6.35;;;5.72;;
13832;SDS011;6987;19.472;-99.276;2022-10-23T10:48:35;6.32;;;5.68;;
13832;SDS011;6987;19.472;-99.276;2022-10-23T10:51:05;6.60;;;6.00;;
13832;SDS011;6987;19.472;-99.276;2022-10-23T10:53:41;6.88;;;5.82;;
13832;SDS011;6987;19.472;-99.276;2022-10-23T10:56:13;5.95;;;5.45;;
13832;SDS011;6987;19.472;-99.276;2022-10-23T10:58:44;6.28;;;5.78;;
13832;SDS011;6987;19.472;-99.276;2022-10-23T11:01:16;6.85;;;6.10;;
13832;SDS011;6987;19.472;-99.276;2022-10-23T11:03:52;6.78;;;6.18;;
13832;SDS011;6987;19.472;-99.276;2022-10-23T11:06:22;6.68;;;6.15;;
13832;SDS011;6987;19.472;-99.276;2022-10-23T11:08:52;6.03;;;5.53;;
13832;SDS011;6987;19.472;-99.276;2022-10-23T11:11:25;8.90;;;6.25;;
13832;SDS011;6987;19.472;-99.276;2022-10-23T11:13:55;9.20;;;6.07;;
13832;SDS011;6987;19.472;-99.276;2022-10-23T11:16:25;6.70;;;6.10;;
13832;SDS011;6987;19.472;-99.276;2022-10-23T11:18:58;5.78;;;5.30;;
13832;SDS011;6987;19.472;-99.276;2022-10-23T11:21:31;6.35;;;5.85;;
13832;SDS011;6987;19.472;-99.276;2022-10-23T11:26:56;5.97;;;5.40;;
13832;SDS011;6987;19.472;-99.276;2022-10-23T11:29:41;6.53;;;5.93;;
13832;SDS011;6987;19.472;-99.276;2022-10-23T11:32:19;6.43;;;5.85;;
13832;SDS011;6987;19.472;-99.276;2022-10-23T11:34:58;5.70;;;5.25;;
13832;SDS011;6987;19.472;-99.276;2022-10-23T11:37:31;6.30;;;5.75;;
13832;SDS011;6987;19.472;-99.276;2022-10-23T11:40:00;6.60;;;6.10;;
13832;SDS011;6987;19.472;-99.276;2022-10-23T11:42:32;8.20;;;6.43;;
13832;SDS011;6987;19.472;-99.276;2022-10-23T11:45:01;9.15;;;7.10;;
13832;SDS011;6987;19.472;-99.276;2022-10-23T11:47:31;7.65;;;6.95;;
13832;SDS011;6987;19.472;-99.276;2022-10-23T11:52:55;6.95;;;6.35;;
13832;SDS011;6987;19.472;-99.276;2022-10-23T11:55:25;7.30;;;6.28;;
13832;SDS011;6987;19.472;-99.276;2022-10-23T11:58:15;7.65;;;6.82;;
13832;SDS011;6987;19.472;-99.276;2022-10-23T12:00:51;7.47;;;6.03;;
13832;SDS011;6987;19.472;-99.276;2022-10-23T12:03:21;6.88;;;6.28;;
13832;SDS011;6987;19.472;-99.276;2022-10-23T12:06:01;6.60;;;6.00;;
13832;SDS011;6987;19.472;-99.276;2022-10-23T12:08:32;7.13;;;6.20;;
13832;SDS011;6987;19.472;-99.276;2022-10-23T12:11:02;7.40;;;6.75;;
13832;SDS011;6987;19.472;-99.276;2022-10-23T12:13:44;8.10;;;7.07;;
13832;SDS011;6987;19.472;-99.276;2022-10-23T12:16:13;7.85;;;7.15;;
13832;SDS011;6987;19.472;-99.276;2022-10-23T12:18:46;8.38;;;7.63;;
13832;SDS011;6987;19.472;-99.276;2022-10-23T12:21:16;8.10;;;7.18;;
13832;SDS011;6987;19.472;-99.276;2022-10-23T12:23:59;8.40;;;6.97;;
13832;SDS011;6987;19.472;-99.276;2022-10-23T12:26:37;7.78;;;7.05;;
13832;SDS011;6987;19.472;-99.276;2022-10-23T12:29:15;9.48;;;6.43;;
13832;SDS011;6987;19.472;-99.276;2022-10-23T12:31:50;7.60;;;7.05;;
13832;SDS011;6987;19.472;-99.276;2022-10-23T12:34:25;9.40;;;7.55;;
13832;SDS011;6987;19.472;-99.276;2022-10-23T12:37:00;8.20;;;7.32;;
13832;SDS011;6987;19.472;-99.276;2022-10-23T12:39:31;8.65;;;7.28;;
13832;SDS011;6987;19.472;-99.276;2022-10-23T12:42:01;8.35;;;7.65;;
13832;SDS011;6987;19.472;-99.276;2022-10-23T12:44:32;7.80;;;7.10;;
13832;SDS011;6987;19.472;-99.276;2022-10-23T12:47:01;8.02;;;7.28;;
13832;SDS011;6987;19.472;-99.276;2022-10-23T12:49:31;7.88;;;7.10;;
13832;SDS011;6987;19.472;-99.276;2022-10-23T12:52:00;8.80;;;7.63;;
13832;SDS011;6987;19.472;-99.276;2022-10-23T12:54:30;8.65;;;7.25;;
13832;SDS011;6987;19.472;-99.276;2022-10-23T12:56:59;7.57;;;6.88;;
13832;SDS011;6987;19.472;-99.276;2022-10-23T12:59:30;8.38;;;7.47;;
13832;SDS011;6987;19.472;-99.276;2022-10-23T13:02:02;8.45;;;7.68;;
13832;SDS011;6987;19.472;-99.276;2022-10-23T13:04:40;8.70;;;7.97;;
13832;SDS011;6987;19.472;-99.276;2022-10-23T13:07:09;8.30;;;7.32;;
13832;SDS011;6987;19.472;-99.276;2022-10-23T13:09:39;8.90;;;7.90;;
13832;SDS011;6987;19.472;-99.276;2022-10-23T13:12:13;8.00;;;7.00;;
13832;SDS011;6987;19.472;-99.276;2022-10-23T13:14:53;8.18;;;7.47;;
13832;SDS011;6987;19.472;-99.276;2022-10-23T13:17:31;8.13;;;7.22;;
13832;SDS011;6987;19.472;-99.276;2022-10-23T13:20:15;8.07;;;6.90;;
13832;SDS011;6987;19.472;-99.276;2022-10-23T13:22:47;8.77;;;7.88;;
13832;SDS011;6987;19.472;-99.276;2022-10-23T13:25:20;8.95;;;7.70;;
13832;SDS011;6987;19.472;-99.276;2022-10-23T13:27:49;7.05;;;6.53;;
13832;SDS011;6987;19.472;-99.276;2022-10-23T13:30:28;7.82;;;6.97;;
13832;SDS011;6987;19.472;-99.276;2022-10-23T13:32:59;11.02;;;7.68;;
13832;SDS011;6987;19.472;-99.276;2022-10-23T13:35:28;8.23;;;7.43;;
13832;SDS011;6987;19.472;-99.276;2022-10-23T13:38:06;7.88;;;7.07;;
13832;SDS011;6987;19.472;-99.276;2022-10-23T13:40:38;8.98;;;7.57;;
13832;SDS011;6987;19.472;-99.276;2022-10-23T13:43:07;8.15;;;7.30;;
13832;SDS011;6987;19.472;-99.276;2022-10-23T13:45:43;11.52;;;8.10;;
13832;SDS011;6987;19.472;-99.276;2022-10-23T13:48:14;8.52;;;7.70;;
13832;SDS011;6987;19.472;-99.276;2022-10-23T13:50:43;9.75;;;8.32;;
13832;SDS011;6987;19.472;-99.276;2022-10-23T13:53:12;10.68;;;8.82;;
13832;SDS011;6987;19.472;-99.276;2022-10-23T13:55:42;9.02;;;7.80;;
13832;SDS011;6987;19.472;-99.276;2022-10-23T13:58:12;9.43;;;8.57;;
13832;SDS011;6987;19.472;-99.276;2022-10-23T14:00:40;11.77;;;8.68;;
13832;SDS011;6987;19.472;-99.276;2022-10-23T14:03:09;10.18;;;9.18;;
13832;SDS011;6987;19.472;-99.276;2022-10-23T14:05:40;14.02;;;8.55;;
13832;SDS011;6987;19.472;-99.276;2022-10-23T14:08:09;9.80;;;8.88;;
13832;SDS011;6987;19.472;-99.276;2022-10-23T14:10:38;9.60;;;8.63;;
13832;SDS011;6987;19.472;-99.276;2022-10-23T14:13:07;11.10;;;8.35;;
13832;SDS011;6987;19.472;-99.276;2022-10-23T14:15:36;10.20;;;9.30;;
13832;SDS011;6987;19.472;-99.276;2022-10-23T14:18:05;9.40;;;8.50;;
13832;SDS011;6987;19.472;-99.276;2022-10-23T14:20:34;10.75;;;9.13;;
13832;SDS011;6987;19.472;-99.276;2022-10-23T14:23:04;9.38;;;8.55;;
13832;SDS011;6987;19.472;-99.276;2022-10-23T14:25:33;9.77;;;8.57;;
13832;SDS011;6987;19.472;-99.276;2022-10-23T14:28:02;9.70;;;8.80;;
13832;SDS011;6987;19.472;-99.276;2022-10-23T14:30:31;12.90;;;8.45;;
13832;SDS011;6987;19.472;-99.276;2022-10-23T14:33:00;9.90;;;8.25;;
13832;SDS011;6987;19.472;-99.276;2022-10-23T14:35:28;9.27;;;8.38;;
13832;SDS011;6987;19.472;-99.276;2022-10-23T14:37:57;8.02;;;7.22;;
13832;SDS011;6987;19.472;-99.276;2022-10-23T14:40:28;7.65;;;6.95;;
13832;SDS011;6987;19.472;-99.276;2022-10-23T14:42:57;7.95;;;7.15;;
13832;SDS011;6987;19.472;-99.276;2022-10-23T14:45:26;9.38;;;7.43;;
13832;SDS011;6987;19.472;-99.276;2022-10-23T14:47:54;12.38;;;8.05;;
13832;SDS011;6987;19.472;-99.276;2022-10-23T14:50:25;8.68;;;7.47;;
13832;SDS011;6987;19.472;-99.276;2022-10-23T14:52:54;7.50;;;6.90;;
13832;SDS011;6987;19.472;-99.276;2022-10-23T14:55:23;8.98;;;7.45;;
13832;SDS011;6987;19.472;-99.276;2022-10-23T14:57:55;7.88;;;7.07;;
13832;SDS011;6987;19.472;-99.276;2022-10-23T15:00:24;7.22;;;6.57;;
13832;SDS011;6987;19.472;-99.276;2022-10-23T15:02:53;7.97;;;7.32;;
13832;SDS011;6987;19.472;-99.276;2022-10-23T15:05:22;6.80;;;6.22;;
13832;SDS011;6987;19.472;-99.276;2022-10-23T15:07:50;7.47;;;6.57;;
13832;SDS011;6987;19.472;-99.276;2022-10-23T15:10:19;5.95;;;5.53;;
13832;SDS011;6987;19.472;-99.276;2022-10-23T15:12:48;7.65;;;6.53;;